createdAt,value
2018-07-05T00:02:23.310Z,99696.22
2018-07-05T00:05:08.364Z,99691.67
2018-07-05T00:07:53.561Z,99694.77
2018-07-05T00:10:38.610Z,99695.21
2018-07-05T00:13:23.796Z,99686.42
2018-07-05T00:16:08.813Z,99694.78
2018-07-05T00:18:54.082Z,99696.82
2018-07-05T00:21:39.268Z,99699.67
2018-07-05T00:24:24.142Z,99694.07
2018-07-05T00:27:09.059Z,99688.66
2018-07-05T00:29:54.315Z,99687.26
2018-07-05T00:32:39.346Z,99673.30
2018-07-05T00:35:24.531Z,99677.20
2018-07-05T00:38:09.698Z,99678.43
2018-07-05T00:40:54.959Z,99680.74
2018-07-05T00:43:40.422Z,99685.57
2018-07-05T00:46:25.453Z,99685.26
2018-07-05T00:49:10.822Z,99691.00
2018-07-05T00:51:55.758Z,99683.20
2018-07-05T00:54:40.988Z,99672.75
2018-07-05T00:57:26.103Z,99673.52
2018-07-05T01:00:11.274Z,99682.70
2018-07-05T01:02:56.553Z,99682.81
2018-07-05T01:05:41.603Z,99679.84
2018-07-05T01:08:26.691Z,99682.36
2018-07-05T01:11:11.855Z,99676.06
2018-07-05T01:13:57.034Z,99679.14
2018-07-05T01:16:42.318Z,99683.02
2018-07-05T01:19:27.297Z,99684.50
2018-07-05T01:22:12.587Z,99678.91
2018-07-05T01:24:57.872Z,99692.42
2018-07-05T01:27:43.007Z,99693.20
2018-07-05T01:30:28.042Z,99699.53
2018-07-05T01:33:13.445Z,99699.33
2018-07-05T01:35:58.554Z,99704.05
2018-07-05T01:38:43.602Z,99712.17
2018-07-05T01:41:28.561Z,99715.14
2018-07-05T01:44:13.841Z,99725.46
2018-07-05T01:46:58.968Z,99732.14
2018-07-05T01:49:44.002Z,99730.50
2018-07-05T01:52:29.036Z,99719.34
2018-07-05T01:55:14.118Z,99723.64
2018-07-05T01:57:59.178Z,99728.81
2018-07-05T02:00:44.377Z,99718.25
2018-07-05T02:03:29.549Z,99734.80
2018-07-05T02:06:14.698Z,99737.98
2018-07-05T02:08:59.805Z,99738.79
2018-07-05T02:11:45.245Z,99738.79
2018-07-05T02:14:30.418Z,99731.86
2018-07-05T02:17:15.710Z,99739.66
2018-07-05T02:20:00.878Z,99737.08
2018-07-05T02:22:45.899Z,99733.33
2018-07-05T02:25:30.850Z,99731.89
2018-07-05T02:28:15.729Z,99733.17
2018-07-05T02:31:00.852Z,99739.70
2018-07-05T02:33:46.673Z,99743.27
2018-07-05T02:36:34.602Z,99743.66
2018-07-05T02:39:25.553Z,99747.88
2018-07-05T02:42:10.554Z,99747.59
2018-07-05T02:44:50.155Z,99745.14
2018-07-05T02:47:35.283Z,99738.61
2018-07-05T02:50:20.439Z,99739.28
2018-07-05T02:53:05.637Z,99736.59
2018-07-05T02:55:50.838Z,99732.12
2018-07-05T02:58:36.053Z,99728.48
2018-07-05T03:01:21.094Z,99730.09
2018-07-05T03:04:06.496Z,99735.52
2018-07-05T03:06:51.570Z,99738.46
2018-07-05T03:09:36.546Z,99734.27
2018-07-05T03:12:21.621Z,99742.53
2018-07-05T03:15:06.797Z,99737.52
2018-07-05T03:17:52.102Z,99734.06
2018-07-05T03:20:37.422Z,99735.70
2018-07-05T03:23:16.853Z,99734.09
2018-07-05T03:26:02.064Z,99729.06
2018-07-05T03:28:47.294Z,99735.47
2018-07-05T03:31:32.358Z,99737.88
2018-07-05T03:34:17.606Z,99732.28
2018-07-05T03:37:02.991Z,99730.15
2018-07-05T03:39:48.171Z,99729.20
2018-07-05T03:42:33.619Z,99728.11
2018-07-05T03:45:12.873Z,99721.86
2018-07-05T03:47:57.936Z,99729.09
2018-07-05T03:50:42.873Z,99729.48
2018-07-05T03:53:28.102Z,99726.52
2018-07-05T03:56:13.237Z,99719.24
2018-07-05T03:58:52.540Z,99720.98
2018-07-05T04:01:37.671Z,99722.00
2018-07-05T04:04:22.704Z,99717.34
2018-07-05T04:07:07.778Z,99730.47
2018-07-05T04:09:53.086Z,99727.84
2018-07-05T04:12:37.909Z,99740.78
2018-07-05T04:15:23.002Z,99745.03
2018-07-05T04:18:02.288Z,99745.37
2018-07-05T04:20:47.406Z,99742.09
2018-07-05T04:23:32.405Z,99751.55
2018-07-05T04:26:17.534Z,99757.74
2018-07-05T04:29:02.671Z,99762.58
2018-07-05T04:31:47.830Z,99760.06
2018-07-05T04:34:32.837Z,99770.16
2018-07-05T04:37:18.098Z,99769.03
2018-07-05T04:40:03.273Z,99763.73
2018-07-05T04:42:42.701Z,99771.35
2018-07-05T04:45:27.770Z,99771.31
2018-07-05T04:48:12.851Z,99768.81
2018-07-05T04:50:58.108Z,99770.09
2018-07-05T04:53:43.337Z,99775.44
2018-07-05T04:56:28.338Z,99773.77
2018-07-05T04:59:07.762Z,99770.31
2018-07-05T05:01:53.033Z,99775.04
2018-07-05T05:04:38.154Z,99772.94
2018-07-05T05:07:23.321Z,99778.16
2018-07-05T05:13:06.778Z,99778.27
2018-07-05T05:15:51.926Z,99782.78
2018-07-05T05:18:37.246Z,99782.77
2018-07-05T05:21:22.290Z,99782.66
2018-07-05T05:24:07.498Z,99784.37
2018-07-05T05:26:52.622Z,99784.44
2018-07-05T05:29:37.959Z,99786.77
2018-07-05T05:32:17.256Z,99783.66
2018-07-05T05:35:02.452Z,99788.47
2018-07-05T05:37:47.723Z,99787.81
2018-07-05T05:40:32.815Z,99784.99
2018-07-05T05:43:17.920Z,99776.06
2018-07-05T05:46:02.919Z,99781.98
2018-07-05T05:48:47.981Z,99784.02
2018-07-05T05:51:33.213Z,99782.98
2018-07-05T05:54:18.136Z,99781.38
2018-07-05T05:57:03.250Z,99782.98
2018-07-05T05:59:48.486Z,99781.04
2018-07-05T06:02:27.994Z,99783.52
2018-07-05T06:05:13.156Z,99780.82
2018-07-05T06:07:58.304Z,99781.04
2018-07-05T06:10:43.135Z,99774.47
2018-07-05T06:13:28.350Z,99774.69
2018-07-05T06:16:13.541Z,99773.32
2018-07-05T06:18:58.651Z,99775.73
2018-07-05T06:21:43.558Z,99778.73
2018-07-05T06:24:22.888Z,99774.16
2018-07-05T06:27:07.964Z,99780.97
2018-07-05T06:29:53.181Z,99780.77
2018-07-05T06:32:38.159Z,99776.95
2018-07-05T06:35:23.346Z,99780.30
2018-07-05T06:38:08.370Z,99773.70
2018-07-05T06:40:47.702Z,99776.72
2018-07-05T06:43:32.706Z,99772.62
2018-07-05T06:46:17.647Z,99769.16
2018-07-05T06:49:02.435Z,99774.02
2018-07-05T06:51:47.706Z,99767.67
2018-07-05T06:54:32.890Z,99775.94
2018-07-05T06:57:17.935Z,99772.09
2018-07-05T07:00:02.902Z,99775.23
2018-07-05T07:02:48.202Z,99767.15
2018-07-05T07:05:28.081Z,99770.22
2018-07-05T07:08:13.151Z,99761.09
2018-07-05T07:10:58.323Z,99765.86
2018-07-05T07:13:43.410Z,99764.31
2018-07-05T07:16:28.451Z,99759.72
2018-07-05T07:19:07.749Z,99761.64
2018-07-05T07:21:52.779Z,99763.78
2018-07-05T07:24:37.619Z,99760.64
2018-07-05T07:27:22.686Z,99765.47
2018-07-05T07:30:07.608Z,99768.34
2018-07-05T07:32:46.810Z,99770.94
2018-07-05T07:35:31.872Z,99769.95
2018-07-05T07:38:16.822Z,99771.92
2018-07-05T07:41:01.995Z,99778.78
2018-07-05T07:43:28.333Z,99770.16
2018-07-05T07:45:54.623Z,99776.17
2018-07-05T07:48:20.926Z,99779.92
2018-07-05T07:50:47.195Z,99779.75
2018-07-05T07:53:13.561Z,99781.73
2018-07-05T07:55:39.875Z,99785.75
2018-07-05T07:58:06.303Z,99786.09
2018-07-05T08:00:32.996Z,99791.77
2018-07-05T08:02:59.263Z,99788.84
2018-07-05T08:05:25.677Z,99793.31
2018-07-05T08:07:52.091Z,99793.38
2018-07-05T08:10:33.350Z,99793.11
2018-07-05T08:12:59.676Z,99793.58
2018-07-05T08:15:25.957Z,99792.44
2018-07-05T08:17:52.304Z,99795.09
2018-07-05T08:20:18.681Z,99796.02
2018-07-05T08:22:45.004Z,99796.22
2018-07-05T08:25:11.345Z,99798.34
2018-07-05T08:27:37.674Z,99796.02
2018-07-05T08:30:03.975Z,99799.23
2018-07-05T08:32:30.367Z,99797.31
2018-07-05T08:34:56.746Z,99801.16
2018-07-05T08:37:23.147Z,99805.50
2018-07-05T08:39:49.526Z,99801.44
2018-07-05T08:42:15.811Z,99804.39
2018-07-05T08:44:42.096Z,99812.13
2018-07-05T08:47:08.421Z,99810.84
2018-07-05T08:49:34.901Z,99817.04
2018-07-05T08:52:01.430Z,99811.13
2018-07-05T08:54:27.762Z,99817.21
2018-07-05T08:56:54.035Z,99815.40
2018-07-05T08:59:20.375Z,99829.19
2018-07-05T09:01:52.609Z,99839.31
2018-07-05T09:04:18.971Z,99838.05
2018-07-05T09:06:46.158Z,99835.66
2018-07-05T09:09:12.445Z,99844.39
2018-07-05T09:11:38.814Z,99852.05
2018-07-05T09:14:05.119Z,99845.33
2018-07-05T09:16:31.475Z,99848.47
2018-07-05T09:18:57.787Z,99847.67
2018-07-05T09:21:24.249Z,99856.53
2018-07-05T09:23:50.603Z,99857.80
2018-07-05T09:26:16.918Z,99851.05
2018-07-05T09:28:43.574Z,99850.52
2018-07-05T09:31:09.997Z,99848.40
2018-07-05T09:33:36.298Z,99853.73
2018-07-05T09:36:02.594Z,99852.72
2018-07-05T09:38:29.512Z,99856.83
2018-07-05T09:40:55.902Z,99866.42
2018-07-05T09:43:22.217Z,99861.94
2018-07-05T09:45:48.870Z,99859.34
2018-07-05T09:48:15.163Z,99864.28
2018-07-05T09:50:41.452Z,99861.06
2018-07-05T09:53:07.774Z,99864.14
2018-07-05T09:55:34.105Z,99864.14
2018-07-05T09:58:00.430Z,99856.79
2018-07-05T10:01:03.208Z,99861.22
2018-07-05T10:03:29.485Z,99859.09
2018-07-05T10:05:55.808Z,99863.77
2018-07-05T10:08:22.194Z,99858.16
2018-07-05T10:10:48.492Z,99866.22
2018-07-05T10:13:15.073Z,99864.95
2018-07-05T10:15:41.765Z,99863.34
2018-07-05T10:18:08.030Z,99863.81
2018-07-05T10:20:34.348Z,99866.41
2018-07-05T10:23:00.773Z,99856.52
2018-07-05T10:25:27.120Z,99863.34
2018-07-05T10:27:53.455Z,99858.80
2018-07-05T10:30:38.609Z,99860.47
2018-07-05T10:33:23.549Z,99864.27
2018-07-05T10:35:49.826Z,99867.63
2018-07-05T10:38:16.172Z,99865.88
2018-07-05T10:41:01.237Z,99864.49
2018-07-05T10:43:46.814Z,99878.89
2018-07-05T10:46:31.857Z,99869.61
2018-07-05T10:49:17.061Z,99873.63
2018-07-05T10:52:02.202Z,99875.63
2018-07-05T10:54:47.301Z,99873.82
2018-07-05T10:57:32.421Z,99871.21
2018-07-05T11:00:17.634Z,99867.69
2018-07-05T11:03:02.648Z,99873.02
2018-07-05T11:05:47.807Z,99874.05
2018-07-05T11:08:33.018Z,99877.52
2018-07-05T11:11:18.151Z,99870.43
2018-07-05T11:14:03.310Z,99877.25
2018-07-05T11:16:48.443Z,99873.70
2018-07-05T11:19:33.630Z,99863.95
2018-07-05T11:22:19.070Z,99880.93
2018-07-05T11:25:04.175Z,99874.83
2018-07-05T11:27:49.207Z,99879.90
2018-07-05T11:30:34.356Z,99871.57
2018-07-05T11:33:19.446Z,99873.50
2018-07-05T11:36:04.987Z,99870.95
2018-07-05T11:38:50.026Z,99873.25
2018-07-05T11:41:36.080Z,99872.45
2018-07-05T11:44:21.230Z,99876.20
2018-07-05T11:47:06.498Z,99875.19
2018-07-05T11:49:51.722Z,99875.66
2018-07-05T11:52:37.012Z,99875.63
2018-07-05T11:55:22.141Z,99876.30
2018-07-05T11:58:07.050Z,99880.58
2018-07-05T12:00:52.107Z,99882.25
2018-07-05T12:03:37.258Z,99886.89
2018-07-05T12:06:22.416Z,99881.83
2018-07-05T12:09:01.791Z,99876.58
2018-07-05T12:11:47.071Z,99881.71
2018-07-05T12:14:32.322Z,99881.11
2018-07-05T12:17:17.450Z,99875.31
2018-07-05T12:20:02.427Z,99878.67
2018-07-05T12:22:47.643Z,99877.26
2018-07-05T12:25:33.532Z,99876.98
2018-07-05T12:28:18.686Z,99876.18
2018-07-05T12:31:03.714Z,99876.97
2018-07-05T12:33:48.854Z,99877.75
2018-07-05T12:36:34.100Z,99887.61
2018-07-05T12:39:19.519Z,99887.42
2018-07-05T12:42:04.591Z,99882.06
2018-07-05T12:44:43.982Z,99885.88
2018-07-05T12:47:29.251Z,99877.11
2018-07-05T12:50:14.371Z,99879.04
2018-07-05T12:52:59.493Z,99879.84
2018-07-05T12:55:46.032Z,99876.09
2018-07-05T12:58:31.152Z,99877.77
2018-07-05T13:01:16.168Z,99872.81
2018-07-05T13:04:03.382Z,99878.77
2018-07-05T13:06:48.442Z,99871.08
2018-07-05T13:09:33.751Z,99870.63
2018-07-05T13:12:19.139Z,99874.88
2018-07-05T13:15:04.390Z,99877.91
2018-07-05T13:17:49.646Z,99867.47
2018-07-05T13:20:34.863Z,99874.91
2018-07-05T13:23:20.057Z,99876.00
2018-07-05T13:25:59.378Z,99876.42
2018-07-05T13:28:44.514Z,99879.27
2018-07-05T13:31:29.682Z,99883.21
2018-07-05T13:34:14.778Z,99879.05
2018-07-05T13:36:59.810Z,99881.45
2018-07-05T13:39:45.519Z,99881.76
2018-07-05T13:42:24.822Z,99887.22
2018-07-05T13:45:09.927Z,99877.22
2018-07-05T13:47:55.134Z,99880.70
2018-07-05T13:50:40.429Z,99877.75
2018-07-05T13:53:25.721Z,99880.18
2018-07-05T13:56:10.818Z,99883.05
2018-07-05T13:58:55.924Z,99880.38
2018-07-05T14:01:41.115Z,99880.58
2018-07-05T14:04:26.170Z,99887.52
2018-07-05T14:07:11.763Z,99881.36
2018-07-05T14:09:57.128Z,99877.75
2018-07-05T14:12:42.197Z,99881.98
2018-07-05T14:15:28.502Z,99881.80
2018-07-05T14:18:13.418Z,99876.05
2018-07-05T14:20:58.618Z,99881.39
2018-07-05T14:23:43.661Z,99875.25
2018-07-05T14:26:28.831Z,99874.44
2018-07-05T14:29:13.870Z,99868.25
2018-07-05T14:31:59.064Z,99866.17
2018-07-05T14:34:44.113Z,99859.42
2018-07-05T14:37:29.444Z,99861.85
2018-07-05T14:40:14.512Z,99864.27
2018-07-05T14:42:59.680Z,99861.37
2018-07-05T14:45:45.446Z,99863.63
2018-07-05T14:48:30.549Z,99865.38
2018-07-05T14:51:15.716Z,99863.51
2018-07-05T14:54:00.813Z,99867.81
2018-07-05T14:56:46.434Z,99863.17
2018-07-05T14:59:31.566Z,99862.30
2018-07-05T15:02:16.919Z,99859.00
2018-07-05T15:05:01.927Z,99863.56
2018-07-05T15:07:47.162Z,99860.61
2018-07-05T15:10:39.695Z,99862.13
2018-07-05T15:13:25.017Z,99868.66
2018-07-05T15:16:10.168Z,99865.63
2018-07-05T15:18:55.236Z,99864.80
2018-07-05T15:21:40.486Z,99860.66
2018-07-05T15:24:25.486Z,99862.33
2018-07-05T15:27:10.586Z,99862.81
2018-07-05T15:29:56.427Z,99858.48
2018-07-05T15:32:41.603Z,99861.75
2018-07-05T15:35:26.800Z,99860.05
2018-07-05T15:38:11.990Z,99859.31
2018-07-05T15:40:56.935Z,99862.61
2018-07-05T15:43:41.874Z,99861.45
2018-07-05T15:46:27.031Z,99855.70
2018-07-05T15:49:12.177Z,99851.02
2018-07-05T15:51:57.115Z,99855.61
2018-07-05T15:54:41.994Z,99850.36
2018-07-05T15:57:27.279Z,99849.03
2018-07-05T16:00:12.493Z,99851.52
2018-07-05T16:02:57.563Z,99849.10
2018-07-05T16:05:42.516Z,99840.11
2018-07-05T16:08:27.850Z,99848.34
2018-07-05T16:11:13.109Z,99847.91
2018-07-05T16:13:58.212Z,99844.81
2018-07-05T16:16:43.110Z,99841.89
2018-07-05T16:19:28.186Z,99843.48
2018-07-05T16:22:13.230Z,99836.70
2018-07-05T16:24:58.343Z,99844.75
2018-07-05T16:27:43.305Z,99839.10
2018-07-05T16:30:28.304Z,99834.81
2018-07-05T16:33:13.367Z,99830.28
2018-07-05T16:35:58.568Z,99830.66
2018-07-05T16:38:43.686Z,99832.09
2018-07-05T16:41:28.762Z,99836.42
2018-07-05T16:44:13.950Z,99835.63
2018-07-05T16:46:59.114Z,99832.95
2018-07-05T16:49:44.277Z,99830.71
2018-07-05T16:52:29.381Z,99836.95
2018-07-05T16:55:14.557Z,99826.86
2018-07-05T16:57:59.577Z,99827.56
2018-07-05T17:00:44.747Z,99826.31
2018-07-05T17:03:29.667Z,99827.82
2018-07-05T17:06:14.830Z,99825.75
2018-07-05T17:08:59.986Z,99825.85
2018-07-05T17:11:44.948Z,99823.23
2018-07-05T17:14:30.210Z,99830.48
2018-07-05T17:17:15.459Z,99828.30
2018-07-05T17:20:00.547Z,99823.45
2018-07-05T17:22:45.450Z,99830.12
2018-07-05T17:25:30.663Z,99835.48
2018-07-05T17:28:15.962Z,99833.28
2018-07-05T17:31:00.954Z,99834.08
2018-07-05T17:33:45.986Z,99828.95
2018-07-05T17:36:31.168Z,99831.94
2018-07-05T17:39:16.344Z,99834.34
2018-07-05T17:42:01.567Z,99833.22
2018-07-05T17:44:46.551Z,99830.50
2018-07-05T17:47:31.523Z,99833.70
2018-07-05T17:50:16.750Z,99834.72
2018-07-05T17:53:01.812Z,99833.37
2018-07-05T17:55:46.790Z,99835.78
2018-07-05T17:58:31.790Z,99845.58
2018-07-05T18:01:16.783Z,99841.66
2018-07-05T18:04:01.989Z,99843.30
2018-07-05T18:06:47.092Z,99848.08
2018-07-05T18:09:31.964Z,99844.53
2018-07-05T18:12:17.151Z,99847.34
2018-07-05T18:15:02.347Z,99844.56
2018-07-05T18:17:47.478Z,99843.16
2018-07-05T18:20:32.469Z,99850.30
2018-07-05T18:23:17.470Z,99852.14
2018-07-05T18:26:02.382Z,99848.13
2018-07-05T18:28:47.572Z,99845.95
2018-07-05T18:31:32.575Z,99843.48
2018-07-05T18:34:17.720Z,99844.02
2018-07-05T18:37:02.924Z,99845.35
2018-07-05T18:39:48.126Z,99847.13
2018-07-05T18:42:33.232Z,99853.52
2018-07-05T18:45:18.337Z,99856.83
2018-07-05T18:48:03.481Z,99849.64
2018-07-05T18:50:48.391Z,99852.50
2018-07-05T18:53:33.426Z,99850.69
2018-07-05T18:56:18.734Z,99853.03
2018-07-05T18:59:03.839Z,99854.80
2018-07-05T19:01:48.887Z,99861.39
2018-07-05T19:04:33.934Z,99863.70
2018-07-05T19:07:19.067Z,99873.92
2018-07-05T19:13:02.107Z,99877.72
2018-07-05T19:15:47.623Z,99873.89
2018-07-05T19:18:32.741Z,99880.25
2018-07-05T19:21:17.922Z,99885.25
2018-07-05T19:23:57.252Z,99886.22
2018-07-05T19:26:42.320Z,99893.11
2018-07-05T19:29:27.531Z,99889.99
2018-07-05T19:32:12.953Z,99887.83
2018-07-05T19:34:58.205Z,99883.28
2018-07-05T19:37:44.269Z,99884.38
2018-07-05T19:40:30.072Z,99888.75
2018-07-05T19:43:15.311Z,99890.84
2018-07-05T19:45:54.686Z,99895.16
2018-07-05T19:48:39.710Z,99894.00
2018-07-05T19:51:24.738Z,99901.16
2018-07-05T19:54:09.770Z,99895.30
2018-07-05T19:56:55.074Z,99894.56
2018-07-05T19:59:40.302Z,99902.24
2018-07-05T20:02:25.590Z,99898.46
2018-07-05T20:05:10.718Z,99900.19
2018-07-05T20:07:55.827Z,99897.69
2018-07-05T20:10:42.038Z,99896.25
2018-07-05T20:13:27.396Z,99896.38
2018-07-05T20:16:12.522Z,99901.18
2018-07-05T20:18:58.032Z,99902.48
2018-07-05T20:21:43.178Z,99903.00
2018-07-05T20:24:28.401Z,99906.44
2018-07-05T20:27:13.649Z,99907.18
2018-07-05T20:29:58.943Z,99913.00
2018-07-05T20:32:43.951Z,99909.98
2018-07-05T20:35:29.085Z,99911.56
2018-07-05T20:38:14.223Z,99918.92
2018-07-05T20:40:59.291Z,99911.95
2018-07-05T20:43:44.666Z,99908.63
2018-07-05T20:46:29.762Z,99903.19
2018-07-05T20:49:09.199Z,99908.76
2018-07-05T20:51:54.454Z,99905.86
2018-07-05T20:54:39.665Z,99904.27
2018-07-05T20:57:24.790Z,99911.94
2018-07-05T21:00:09.833Z,99919.32
2018-07-05T21:02:54.917Z,99923.16
2018-07-05T21:05:40.052Z,99925.02
2018-07-05T21:08:25.317Z,99921.21
2018-07-05T21:11:10.374Z,99925.32
2018-07-05T21:13:49.817Z,99927.00
2018-07-05T21:16:34.997Z,99926.30
2018-07-05T21:19:20.213Z,99930.70
2018-07-05T21:22:05.383Z,99936.95
2018-07-05T21:24:44.549Z,99936.48
2018-07-05T21:27:30.386Z,99940.75
2018-07-05T21:30:15.724Z,99954.41
2018-07-05T21:33:00.790Z,99959.89
2018-07-05T21:35:45.930Z,99952.44
2018-07-05T21:38:31.306Z,99954.33
2018-07-05T21:41:16.534Z,99961.06
2018-07-05T21:43:55.686Z,99956.83
2018-07-05T21:46:40.853Z,99961.22
2018-07-05T21:49:26.182Z,99962.03
2018-07-05T21:52:11.454Z,99958.96
2018-07-05T21:54:56.738Z,99968.33
2018-07-05T21:57:41.810Z,99964.75
2018-07-05T22:00:27.139Z,99967.02
2018-07-05T22:03:12.229Z,99967.30
2018-07-05T22:05:57.442Z,99967.77
2018-07-05T22:08:42.576Z,99971.45
2018-07-05T22:11:27.679Z,99967.34
2018-07-05T22:14:12.880Z,99971.67
2018-07-05T22:17:03.882Z,99967.34
2018-07-05T22:19:54.778Z,99969.77
2018-07-05T22:22:45.991Z,99973.47
2018-07-05T22:25:37.048Z,99975.09
2018-07-05T22:28:28.253Z,99981.21
2018-07-05T22:31:19.354Z,99975.06
2018-07-05T22:33:58.550Z,99979.94
2018-07-05T22:36:43.631Z,99982.52
2018-07-05T22:39:28.877Z,99977.80
2018-07-05T22:42:14.026Z,99975.88
2018-07-05T22:44:53.281Z,99978.34
2018-07-05T22:47:38.272Z,99977.20
2018-07-05T22:50:23.432Z,99975.69
2018-07-05T22:53:08.586Z,99977.20
2018-07-05T22:55:53.922Z,99978.34
2018-07-05T22:58:33.159Z,99980.16
2018-07-05T23:01:18.302Z,99980.34
2018-07-05T23:04:03.486Z,99981.59
2018-07-05T23:06:48.563Z,99983.30
2018-07-05T23:09:33.714Z,99983.84
2018-07-05T23:12:18.837Z,99984.36
2018-07-05T23:15:03.863Z,99980.85
2018-07-05T23:17:48.822Z,99980.77
2018-07-05T23:20:33.879Z,99979.73
2018-07-05T23:23:19.098Z,99987.01
2018-07-05T23:26:04.209Z,99985.24
2018-07-05T23:28:49.641Z,99987.32
2018-07-05T23:31:34.783Z,99983.22
2018-07-05T23:34:19.945Z,99986.67
2018-07-05T23:37:04.996Z,99991.17
2018-07-05T23:39:50.285Z,99986.81
2018-07-05T23:42:29.606Z,99992.43
2018-07-05T23:45:14.755Z,99995.97
2018-07-05T23:47:59.806Z,99992.89
2018-07-05T23:50:44.847Z,99987.20
2018-07-05T23:53:30.102Z,99986.68
2018-07-05T23:56:15.347Z,99986.43
2018-07-05T23:59:00.559Z,99991.64
